Time;durP1;ratioP1;P1;durP2;ratioP2;P2;SDS_P1;SDS_P2;PMS_P1;PMS_P2;Temp;Humidity;BMP_temperature;BMP_pressure;BME280_temperature;BME280_humidity;BME280_pressure;Samples;Min_cycle;Max_cycle;Signal;HPM_P1;HPM_P2
2021/01/16 00:02:13;;;;;;;15.63;10.43;;;-0.30;99.90;;;;;;5026314;28;20275;-73
2021/01/16 00:04:39;;;;;;;15.30;8.93;;;-0.30;99.90;;;;;;5025434;28;20260;-74
2021/01/16 00:07:05;;;;;;;13.75;9.50;;;-0.30;99.90;;;;;;5026717;28;20214;-73
2021/01/16 00:09:31;;;;;;;14.30;10.00;;;-0.30;99.90;;;;;;5026245;28;20218;-73
2021/01/16 00:11:58;;;;;;;13.68;9.82;;;-0.30;99.90;;;;;;5026317;28;20209;-73
2021/01/16 00:14:24;;;;;;;14.25;10.25;;;-0.30;99.90;;;;;;5026619;28;20233;-73
2021/01/16 00:16:50;;;;;;;14.15;10.15;;;-0.30;99.90;;;;;;5002456;28;20604;-73
2021/01/16 00:19:17;;;;;;;13.23;10.25;;;-0.40;99.90;;;;;;5026315;28;20202;-73
2021/01/16 00:21:43;;;;;;;13.38;9.90;;;-0.30;99.90;;;;;;5023284;28;20229;-72
2021/01/16 00:24:10;;;;;;;14.70;9.27;;;-0.30;99.90;;;;;;5025742;28;20608;-73
2021/01/16 00:26:36;;;;;;;13.55;9.90;;;-0.40;99.90;;;;;;5026573;28;20209;-73
2021/01/16 00:29:02;;;;;;;14.82;10.73;;;-0.40;99.90;;;;;;5026784;28;20222;-73
2021/01/16 00:31:29;;;;;;;15.90;10.60;;;-0.40;99.90;;;;;;5026462;28;20210;-73
2021/01/16 00:33:55;;;;;;;17.30;10.60;;;-0.40;99.90;;;;;;5026560;28;20206;-73
2021/01/16 00:36:22;;;;;;;13.73;10.40;;;-0.40;99.90;;;;;;5026396;28;20213;-73
2021/01/16 00:38:48;;;;;;;13.77;10.38;;;-0.30;99.90;;;;;;5026374;28;20209;-74
2021/01/16 00:41:14;;;;;;;14.07;9.82;;;-0.30;99.90;;;;;;5026503;28;20265;-73
2021/01/16 00:43:40;;;;;;;13.57;9.80;;;-0.30;99.90;;;;;;5025079;28;20606;-74
2021/01/16 00:46:07;;;;;;;13.35;10.85;;;-0.30;99.90;;;;;;5025421;28;20202;-73
2021/01/16 00:48:33;;;;;;;17.70;12.18;;;-0.40;99.90;;;;;;5024914;28;20222;-73
2021/01/16 00:50:59;;;;;;;16.90;11.30;;;-0.40;99.90;;;;;;5024724;28;20688;-73
2021/01/16 00:53:26;;;;;;;18.73;11.10;;;-0.50;99.90;;;;;;5024114;28;20300;-73
2021/01/16 00:55:53;;;;;;;13.23;9.98;;;-0.40;99.90;;;;;;5025141;28;20876;-73
2021/01/16 00:58:20;;;;;;;14.15;10.38;;;-0.50;99.90;;;;;;5025329;28;20213;-73
2021/01/16 01:00:48;;;;;;;15.65;10.40;;;-0.50;99.90;;;;;;5025166;28;20205;-74
2021/01/16 01:03:18;;;;;;;12.68;9.77;;;-0.50;99.90;;;;;;5025388;28;21005;-72
2021/01/16 01:05:44;;;;;;;17.73;10.48;;;-0.40;99.90;;;;;;5024408;28;20739;-73
2021/01/16 01:08:11;;;;;;;14.10;10.43;;;-0.50;99.90;;;;;;5086314;22;20605;-71
2021/01/16 01:10:40;;;;;;;16.50;11.15;;;-0.40;99.90;;;;;;5013798;28;20194;-71
2021/01/16 01:13:07;;;;;;;13.27;10.05;;;-0.40;99.90;;;;;;5008017;28;20666;-71
2021/01/16 01:15:33;;;;;;;17.63;11.63;;;-0.40;99.90;;;;;;5002316;28;20237;-71
2021/01/16 01:18:01;;;;;;;15.75;11.52;;;-0.40;99.90;;;;;;5008169;28;20198;-71
2021/01/16 01:20:28;;;;;;;14.75;10.38;;;-0.50;99.90;;;;;;5004697;28;20190;-71
2021/01/16 01:22:55;;;;;;;20.05;11.73;;;-0.50;99.90;;;;;;5000422;28;20744;-71
2021/01/16 01:25:21;;;;;;;17.20;11.55;;;-0.50;99.90;;;;;;4999784;28;20257;-71
2021/01/16 01:27:50;;;;;;;16.30;10.90;;;-0.60;99.90;;;;;;4989041;28;20217;-71
2021/01/16 01:30:17;;;;;;;16.15;10.95;;;-0.50;99.90;;;;;;4989316;28;20251;-71
2021/01/16 01:32:44;;;;;;;17.27;11.40;;;-0.50;99.90;;;;;;4988964;28;20211;-71
2021/01/16 01:35:11;;;;;;;15.23;11.32;;;-0.50;99.90;;;;;;4989746;28;20226;-70
2021/01/16 01:37:39;;;;;;;14.70;10.48;;;-0.50;99.90;;;;;;4989373;28;20210;-72
2021/01/16 01:40:07;;;;;;;16.35;10.75;;;-0.50;99.90;;;;;;4989439;28;20627;-72
2021/01/16 01:42:34;;;;;;;18.35;12.00;;;-0.50;99.90;;;;;;4988675;28;20203;-72
2021/01/16 01:45:01;;;;;;;15.73;10.15;;;-0.60;99.90;;;;;;4989821;28;20222;-72
2021/01/16 01:47:27;;;;;;;16.95;11.95;;;-0.60;99.90;;;;;;4989239;28;20254;-72
2021/01/16 01:49:54;;;;;;;15.60;11.15;;;-0.50;99.90;;;;;;4989012;28;20227;-72
2021/01/16 01:52:21;;;;;;;18.98;12.20;;;-0.40;99.90;;;;;;5002431;28;20233;-72
2021/01/16 01:54:51;;;;;;;19.95;11.90;;;-0.40;99.90;;;;;;5007888;28;20226;-72
2021/01/16 01:57:20;;;;;;;14.55;10.93;;;-0.50;99.90;;;;;;5009173;28;20301;-72
2021/01/16 01:59:46;;;;;;;16.60;11.68;;;-0.50;99.90;;;;;;5008444;28;20214;-72
2021/01/16 02:02:15;;;;;;;18.27;11.80;;;-0.50;99.90;;;;;;5008448;28;20217;-72
2021/01/16 02:04:44;;;;;;;16.10;11.60;;;-0.50;99.90;;;;;;4994649;28;20296;-72
2021/01/16 02:07:28;;;;;;;19.52;11.30;;;-0.50;99.90;;;;;;4984454;28;20215;-72
2021/01/16 02:09:56;;;;;;;17.17;11.43;;;-0.50;99.90;;;;;;4988568;28;20218;-72
2021/01/16 02:12:23;;;;;;;14.98;11.45;;;-0.50;99.90;;;;;;4988996;28;20207;-72
2021/01/16 02:14:58;;;;;;;14.75;9.73;;;-0.50;99.90;;;;;;4989019;28;20293;-72
2021/01/16 02:17:27;;;;;;;18.70;11.10;;;-0.40;99.90;;;;;;4992275;28;20289;-72
2021/01/16 02:20:08;;;;;;;16.33;11.07;;;-0.40;99.90;;;;;;5008165;28;20209;-72
2021/01/16 02:22:46;;;;;;;18.30;10.63;;;-0.40;99.90;;;;;;5007119;28;20214;-72
2021/01/16 02:25:13;;;;;;;17.10;12.73;;;-0.40;99.90;;;;;;5008385;28;20744;-72
2021/01/16 02:27:53;;;;;;;19.15;12.45;;;-0.50;99.90;;;;;;5008271;28;20214;-72
2021/01/16 02:30:21;;;;;;;16.98;12.07;;;-0.50;99.90;;;;;;5008408;28;20230;-72
2021/01/16 02:32:49;;;;;;;17.52;11.40;;;-0.50;99.90;;;;;;5006733;28;20214;-72
2021/01/16 02:35:16;;;;;;;18.15;11.98;;;-0.40;99.90;;;;;;5008396;28;20237;-72
2021/01/16 02:37:56;;;;;;;17.92;12.05;;;-0.50;99.90;;;;;;5008087;28;20215;-72
2021/01/16 02:40:24;;;;;;;17.98;11.82;;;-0.50;99.90;;;;;;5008246;28;20198;-72
2021/01/16 02:43:09;;;;;;;20.23;13.77;;;-0.50;99.90;;;;;;5007745;28;20214;-72
2021/01/16 02:45:38;;;;;;;17.10;12.25;;;-0.50;99.90;;;;;;5007915;28;20222;-72
2021/01/16 02:48:17;;;;;;;19.02;11.55;;;-0.50;99.90;;;;;;5008465;28;20199;-72
2021/01/16 02:50:45;;;;;;;20.35;11.60;;;-0.50;99.90;;;;;;5011431;28;20260;-72
2021/01/16 02:53:12;;;;;;;18.25;11.52;;;-0.50;99.90;;;;;;5018300;28;20202;-72
2021/01/16 02:55:40;;;;;;;18.55;12.57;;;-0.50;99.90;;;;;;5019702;28;20222;-72
2021/01/16 02:58:08;;;;;;;18.10;12.13;;;-0.50;99.90;;;;;;5019433;28;20647;-72
2021/01/16 03:00:34;;;;;;;21.55;12.57;;;-0.50;99.90;;;;;;5011635;28;20230;-72
2021/01/16 03:03:01;;;;;;;16.90;12.43;;;-0.50;99.90;;;;;;5011432;28;20202;-72
2021/01/16 03:05:27;;;;;;;20.70;13.38;;;-0.50;99.90;;;;;;5011852;28;20678;-72
2021/01/16 03:07:54;;;;;;;17.88;12.85;;;-0.50;99.90;;;;;;5011853;28;20218;-72
2021/01/16 03:10:24;;;;;;;22.15;12.55;;;-0.50;99.90;;;;;;5011311;28;20402;-72
2021/01/16 03:12:51;;;;;;;19.35;11.60;;;-0.50;99.90;;;;;;5011036;28;20373;-72
2021/01/16 03:15:20;;;;;;;23.35;13.23;;;-0.50;99.90;;;;;;5011507;28;20233;-72
2021/01/16 03:17:48;;;;;;;19.27;11.80;;;-0.60;99.90;;;;;;5011338;28;20217;-72
2021/01/16 03:20:19;;;;;;;19.52;12.05;;;-0.60;99.90;;;;;;5011113;28;20198;-72
2021/01/16 03:22:49;;;;;;;20.15;12.23;;;-0.60;99.90;;;;;;5010442;28;20206;-72
2021/01/16 03:25:17;;;;;;;19.75;11.05;;;-0.60;99.90;;;;;;5011409;28;20222;-72
2021/01/16 03:27:43;;;;;;;18.33;12.27;;;-0.50;99.90;;;;;;5011143;28;20238;-72
2021/01/16 03:30:10;;;;;;;18.45;12.45;;;-0.50;99.90;;;;;;5011103;28;20225;-72
2021/01/16 03:32:37;;;;;;;17.65;12.25;;;-0.50;99.90;;;;;;5010642;28;20209;-72
2021/01/16 03:35:06;;;;;;;19.27;13.20;;;-0.50;99.90;;;;;;5010516;28;20234;-72
2021/01/16 03:37:32;;;;;;;21.23;12.50;;;-0.50;99.90;;;;;;5011033;28;20210;-72
2021/01/16 03:39:58;;;;;;;23.30;13.48;;;-0.50;99.90;;;;;;5011203;28;20217;-72
2021/01/16 03:42:24;;;;;;;19.55;12.73;;;-0.50;99.90;;;;;;5010759;28;20598;-72
2021/01/16 03:44:50;;;;;;;18.67;14.15;;;-0.50;99.90;;;;;;5011000;28;20308;-72
2021/01/16 03:47:17;;;;;;;19.63;12.30;;;-0.50;99.90;;;;;;5010993;28;20207;-72
2021/01/16 03:49:44;;;;;;;19.75;13.55;;;-0.50;99.90;;;;;;5010361;28;20608;-72
2021/01/16 03:52:19;;;;;;;22.02;14.15;;;-0.60;99.90;;;;;;5010300;28;20202;-72
2021/01/16 03:54:45;;;;;;;24.23;13.30;;;-0.60;99.90;;;;;;5010477;28;20409;-72
2021/01/16 03:57:11;;;;;;;21.27;12.93;;;-0.60;99.90;;;;;;5010646;28;20440;-72
2021/01/16 03:59:37;;;;;;;22.10;14.07;;;-0.60;99.90;;;;;;5009940;28;20203;-72
2021/01/16 04:02:04;;;;;;;21.27;14.07;;;-0.60;99.90;;;;;;5009637;28;20332;-72
2021/01/16 04:04:30;;;;;;;23.50;14.57;;;-0.60;99.90;;;;;;5010354;28;20222;-72
2021/01/16 04:06:57;;;;;;;23.08;15.48;;;-0.60;99.90;;;;;;5010593;28;20210;-72
2021/01/16 04:09:23;;;;;;;23.25;14.80;;;-0.60;99.90;;;;;;5010337;28;20226;-71
2021/01/16 04:11:50;;;;;;;21.73;14.57;;;-0.60;99.90;;;;;;5009412;28;20202;-71
2021/01/16 04:14:16;;;;;;;19.90;14.38;;;-0.50;99.90;;;;;;5010236;28;20230;-71
2021/01/16 04:16:42;;;;;;;20.70;13.70;;;-0.50;99.90;;;;;;5010111;28;21019;-71
2021/01/16 04:19:08;;;;;;;20.95;12.73;;;-0.50;99.90;;;;;;5010875;28;20203;-71
2021/01/16 04:21:34;;;;;;;25.27;14.23;;;-0.50;99.90;;;;;;5009589;28;20229;-71
2021/01/16 04:24:01;;;;;;;25.35;15.05;;;-0.50;99.90;;;;;;5009986;28;20281;-71
2021/01/16 04:26:28;;;;;;;23.65;14.35;;;-0.50;99.90;;;;;;5009893;28;20206;-71
2021/01/16 04:28:54;;;;;;;26.02;14.52;;;-0.50;99.90;;;;;;5010063;28;20222;-72
2021/01/16 04:31:20;;;;;;;24.85;14.95;;;-0.50;99.90;;;;;;5009788;28;20209;-71
2021/01/16 04:33:46;;;;;;;22.50;14.82;;;-0.50;99.90;;;;;;5009277;28;20689;-71
2021/01/16 04:36:12;;;;;;;22.30;14.13;;;-0.50;99.90;;;;;;5009665;28;20584;-72
2021/01/16 04:38:38;;;;;;;24.85;15.70;;;-0.50;99.90;;;;;;5009847;28;20210;-71
2021/01/16 04:41:06;;;;;;;24.27;14.70;;;-0.60;99.90;;;;;;5009802;28;20612;-71
2021/01/16 04:43:33;;;;;;;25.13;16.17;;;-0.60;99.90;;;;;;5008986;28;20212;-71
2021/01/16 04:46:04;;;;;;;22.92;14.40;;;-0.60;99.90;;;;;;5009922;28;20284;-71
2021/01/16 04:48:33;;;;;;;21.05;13.90;;;-0.60;99.90;;;;;;5009089;28;20234;-71
2021/01/16 04:51:01;;;;;;;23.83;14.57;;;-0.60;99.90;;;;;;5009009;28;20301;-72
2021/01/16 04:53:35;;;;;;;20.27;12.48;;;-0.60;99.90;;;;;;5009020;28;20677;-71
2021/01/16 04:56:02;;;;;;;23.27;13.20;;;-0.60;99.90;;;;;;5009659;28;20229;-71
2021/01/16 04:58:33;;;;;;;22.98;14.63;;;-0.60;99.90;;;;;;5009482;28;20260;-71
2021/01/16 05:01:03;;;;;;;22.90;14.50;;;-0.60;99.90;;;;;;5008587;28;20248;-71
2021/01/16 05:03:35;;;;;;;22.85;13.65;;;-0.60;99.90;;;;;;5008769;28;20245;-72
2021/01/16 05:06:06;;;;;;;23.50;12.73;;;-0.50;99.90;;;;;;5009584;28;20222;-71
2021/01/16 05:08:32;;;;;;;23.10;15.35;;;-0.50;99.90;;;;;;5009057;28;20218;-71
2021/01/16 05:11:04;;;;;;;22.77;14.23;;;-0.60;99.90;;;;;;5009263;28;20907;-71
2021/01/16 05:13:41;;;;;;;21.65;14.55;;;-0.50;99.90;;;;;;5007657;28;20229;-71
2021/01/16 05:16:10;;;;;;;24.63;14.05;;;-0.60;99.90;;;;;;5009470;28;20623;-71
2021/01/16 05:18:40;;;;;;;19.63;12.52;;;-0.60;99.90;;;;;;5009157;28;20202;-71
2021/01/16 05:21:06;;;;;;;25.77;13.30;;;-0.60;99.90;;;;;;5009040;28;20199;-71
2021/01/16 05:23:34;;;;;;;22.02;14.32;;;-0.60;99.90;;;;;;5008549;28;20214;-72
2021/01/16 05:26:00;;;;;;;22.73;13.57;;;-0.60;99.90;;;;;;5008963;28;20249;-71
2021/01/16 05:28:27;;;;;;;24.13;14.73;;;-0.60;99.90;;;;;;5008884;28;20248;-71
2021/01/16 05:30:56;;;;;;;26.17;15.02;;;-0.60;99.90;;;;;;5008610;28;20631;-71
2021/01/16 05:33:24;;;;;;;21.65;14.32;;;-0.60;99.90;;;;;;5008620;28;20213;-71
2021/01/16 05:35:52;;;;;;;19.88;13.07;;;-0.60;99.90;;;;;;5008722;28;20293;-71
2021/01/16 05:38:25;;;;;;;20.25;13.52;;;-0.60;99.90;;;;;;5008526;28;20210;-71
2021/01/16 05:40:54;;;;;;;20.63;13.82;;;-0.60;99.90;;;;;;5008455;28;20249;-71
2021/01/16 05:43:21;;;;;;;20.23;12.43;;;-0.60;99.90;;;;;;5008684;28;20206;-71
2021/01/16 05:45:50;;;;;;;22.35;13.63;;;-0.70;99.90;;;;;;5008705;28;20238;-72
2021/01/16 05:48:18;;;;;;;18.42;12.55;;;-0.70;99.90;;;;;;5008898;28;20209;-72
2021/01/16 05:50:44;;;;;;;21.33;13.85;;;-0.70;99.90;;;;;;5008041;28;20230;-72
2021/01/16 05:53:11;;;;;;;21.90;14.70;;;-0.70;99.90;;;;;;5008547;28;20210;-71
2021/01/16 05:55:37;;;;;;;20.92;13.93;;;-0.70;99.90;;;;;;5008512;28;20733;-72
2021/01/16 05:58:07;;;;;;;21.88;14.13;;;-0.70;99.90;;;;;;5008931;28;20202;-72
2021/01/16 06:00:38;;;;;;;20.23;12.80;;;-0.60;99.90;;;;;;5008570;28;20202;-72
2021/01/16 06:03:11;;;;;;;20.65;12.70;;;-0.60;99.90;;;;;;5008119;28;20198;-72
2021/01/16 06:05:38;;;;;;;23.48;15.85;;;-0.60;99.90;;;;;;5008323;28;20249;-72
2021/01/16 06:08:08;;;;;;;19.08;13.25;;;-0.60;99.90;;;;;;5008954;28;20214;-71
2021/01/16 06:10:34;;;;;;;21.60;14.52;;;-0.70;99.90;;;;;;5007961;28;20273;-72
2021/01/16 06:13:12;;;;;;;25.02;14.93;;;-0.70;99.90;;;;;;5008242;28;20202;-72
2021/01/16 06:15:43;;;;;;;24.23;14.27;;;-0.70;99.90;;;;;;5008088;28;20221;-72
2021/01/16 06:18:17;;;;;;;20.83;14.55;;;-0.70;99.90;;;;;;5008763;28;20226;-71
2021/01/16 06:20:47;;;;;;;22.33;14.60;;;-0.80;99.90;;;;;;5008306;28;20210;-72
2021/01/16 06:23:16;;;;;;;21.98;14.02;;;-0.70;99.90;;;;;;5007754;28;20440;-71
2021/01/16 06:25:47;;;;;;;19.17;12.55;;;-0.80;99.90;;;;;;5012524;28;20725;-72
2021/01/16 06:28:17;;;;;;;19.52;13.52;;;-0.80;99.90;;;;;;5012637;28;20585;-71
2021/01/16 06:30:46;;;;;;;21.48;13.70;;;-0.70;99.90;;;;;;5011931;28;20280;-71
2021/01/16 06:33:22;;;;;;;22.95;13.93;;;-0.80;99.90;;;;;;5011893;28;20289;-71
2021/01/16 06:35:55;;;;;;;22.35;13.88;;;-0.70;99.90;;;;;;5011983;28;20222;-71
2021/01/16 06:38:26;;;;;;;20.73;12.82;;;-0.70;99.90;;;;;;5012265;28;20687;-71
2021/01/16 06:40:53;;;;;;;21.42;12.90;;;-0.70;99.90;;;;;;5012058;28;20205;-71
2021/01/16 06:43:23;;;;;;;23.00;14.90;;;-0.70;99.90;;;;;;5011803;28;20202;-71
2021/01/16 06:45:50;;;;;;;21.88;13.60;;;-0.70;99.90;;;;;;5011980;28;20596;-71
2021/01/16 06:48:16;;;;;;;24.67;14.23;;;-0.70;99.90;;;;;;5012509;28;20965;-71
2021/01/16 06:50:43;;;;;;;21.70;13.75;;;-0.70;99.90;;;;;;5011459;28;20253;-72
2021/01/16 06:53:25;;;;;;;23.45;14.32;;;-0.70;99.90;;;;;;5011003;28;20206;-71
2021/01/16 06:56:06;;;;;;;20.23;13.60;;;-0.70;99.90;;;;;;5011388;28;20377;-71
2021/01/16 06:58:41;;;;;;;21.10;13.88;;;-0.70;99.90;;;;;;5012004;28;20214;-71
2021/01/16 07:01:11;;;;;;;21.55;12.10;;;-0.70;99.90;;;;;;5011932;28;20206;-71
2021/01/16 07:03:45;;;;;;;21.05;13.07;;;-0.70;99.90;;;;;;5008692;28;20194;-71
2021/01/16 07:06:12;;;;;;;19.05;13.07;;;-0.80;99.90;;;;;;5011863;28;20207;-71
2021/01/16 07:11:08;;;;;;;24.60;14.30;;;-0.70;99.90;;;;;;5042976;28;20216;-74
2021/01/16 07:13:35;;;;;;;20.63;13.85;;;-0.70;99.90;;;;;;5049597;28;20734;-74
2021/01/16 07:16:04;;;;;;;21.08;14.48;;;-0.70;99.90;;;;;;5050766;28;20236;-74
2021/01/16 07:18:32;;;;;;;20.25;13.77;;;-0.80;99.90;;;;;;5050890;28;20205;-74
2021/01/16 07:20:59;;;;;;;21.98;14.20;;;-0.70;99.90;;;;;;5050691;28;20208;-74
2021/01/16 07:23:26;;;;;;;24.33;13.98;;;-0.70;99.90;;;;;;5050177;28;20241;-74
2021/01/16 07:25:53;;;;;;;21.67;13.07;;;-0.60;99.90;;;;;;5050783;28;20228;-74
2021/01/16 07:28:21;;;;;;;19.30;13.45;;;-0.60;99.90;;;;;;5050312;28;20583;-74
2021/01/16 07:30:49;;;;;;;19.33;13.50;;;-0.60;99.90;;;;;;5050609;28;20253;-74
2021/01/16 07:33:16;;;;;;;18.23;12.80;;;-0.60;99.90;;;;;;5049771;28;20235;-74
2021/01/16 07:35:48;;;;;;;24.27;14.23;;;-0.70;99.90;;;;;;5049804;28;20221;-74
2021/01/16 07:38:15;;;;;;;22.42;15.32;;;-0.70;99.90;;;;;;5050568;28;20229;-74
2021/01/16 07:40:43;;;;;;;21.80;14.27;;;-0.80;99.90;;;;;;5050512;28;20209;-73
2021/01/16 07:43:24;;;;;;;21.73;14.25;;;-0.70;99.90;;;;;;5029926;28;20457;-72
2021/01/16 07:45:59;;;;;;;18.95;12.25;;;-0.70;99.90;;;;;;5030894;28;20284;-73
2021/01/16 07:48:31;;;;;;;19.33;13.05;;;-0.60;99.90;;;;;;5030584;28;20599;-72
2021/01/16 07:51:00;;;;;;;27.05;15.35;;;-0.60;99.90;;;;;;5030518;28;20344;-72
2021/01/16 07:53:28;;;;;;;22.58;14.32;;;-0.60;99.90;;;;;;5029350;28;20208;-71
2021/01/16 07:56:02;;;;;;;18.90;12.43;;;-0.60;99.90;;;;;;5030329;28;20222;-70
2021/01/16 07:58:36;;;;;;;19.88;13.50;;;-0.60;99.90;;;;;;5030346;28;20481;-72
2021/01/16 08:01:09;;;;;;;22.35;14.10;;;-0.60;99.90;;;;;;5030660;28;20244;-71
2021/01/16 08:03:56;;;;;;;19.90;12.90;;;-0.70;99.90;;;;;;5029988;28;20197;-71
2021/01/16 08:06:27;;;;;;;20.50;11.98;;;-0.70;99.90;;;;;;5029869;28;20212;-72
2021/01/16 08:08:57;;;;;;;23.75;13.38;;;-0.70;99.90;;;;;;5030116;28;20220;-71
2021/01/16 08:11:28;;;;;;;20.90;12.48;;;-0.70;99.90;;;;;;5029274;28;20312;-71
2021/01/16 08:13:59;;;;;;;21.23;12.27;;;-0.70;99.90;;;;;;5030081;28;20205;-72
2021/01/16 08:16:27;;;;;;;22.38;13.50;;;-0.60;99.90;;;;;;5028407;28;20235;-72
2021/01/16 08:19:06;;;;;;;15.35;11.70;;;-0.60;99.90;;;;;;5029823;28;20206;-72
2021/01/16 08:21:33;;;;;;;21.10;13.13;;;-0.50;99.90;;;;;;5029547;28;20202;-71
2021/01/16 08:24:05;;;;;;;17.30;12.68;;;-0.50;99.90;;;;;;5029711;28;20236;-73
2021/01/16 08:26:32;;;;;;;22.98;17.10;;;-0.50;99.90;;;;;;5028917;28;20469;-70
2021/01/16 08:28:59;;;;;;;19.05;13.80;;;-0.50;99.90;;;;;;5013005;28;20305;-71
2021/01/16 08:31:28;;;;;;;18.00;13.73;;;-0.60;99.90;;;;;;5009769;28;20315;-70
2021/01/16 08:33:54;;;;;;;20.25;12.32;;;-0.60;99.90;;;;;;5025395;28;20616;-70
2021/01/16 08:36:22;;;;;;;19.95;12.60;;;-0.60;99.90;;;;;;5028599;28;20194;-70
2021/01/16 08:38:50;;;;;;;24.70;13.90;;;-0.50;99.90;;;;;;5029560;28;20205;-70
2021/01/16 08:41:22;;;;;;;21.73;12.85;;;-0.40;99.90;;;;;;5029462;28;20628;-70
2021/01/16 08:43:53;;;;;;;20.05;12.68;;;-0.50;99.90;;;;;;5029235;28;20209;-70
2021/01/16 08:46:24;;;;;;;22.77;13.75;;;-0.40;99.90;;;;;;5029860;28;20210;-70
2021/01/16 08:49:06;;;;;;;18.67;12.35;;;-0.30;99.90;;;;;;5030018;28;20569;-70
2021/01/16 08:51:35;;;;;;;17.17;11.63;;;-0.40;99.90;;;;;;5029646;28;20208;-70
2021/01/16 08:54:16;;;;;;;19.20;12.82;;;-0.40;99.90;;;;;;5029852;28;20222;-70
2021/01/16 08:56:45;;;;;;;31.30;17.58;;;-0.30;99.90;;;;;;5027359;28;20205;-70
2021/01/16 08:59:19;;;;;;;21.98;12.45;;;-0.30;99.90;;;;;;5021832;28;20206;-69
2021/01/16 09:01:47;;;;;;;23.38;11.90;;;-0.20;99.90;;;;;;5026035;28;20229;-69
2021/01/16 09:04:22;;;;;;;20.85;13.90;;;-0.20;99.90;;;;;;5027980;28;20604;-69
2021/01/16 09:06:48;;;;;;;18.88;12.80;;;-0.20;99.90;;;;;;5027076;28;20288;-70
2021/01/16 09:09:24;;;;;;;19.80;12.43;;;-0.20;99.90;;;;;;5027265;28;20221;-69
2021/01/16 09:12:14;;;;;;;17.85;10.95;;;-0.10;99.90;;;;;;5013480;28;20903;-70
2021/01/16 09:14:41;;;;;;;21.15;11.05;;;-0.10;99.90;;;;;;5005331;28;20814;-70
2021/01/16 09:17:24;;;;;;;18.38;11.35;;;0.00;99.90;;;;;;5016592;28;20190;-73
2021/01/16 09:19:58;;;;;;;15.80;10.82;;;0.00;99.90;;;;;;5029459;28;20198;-70
2021/01/16 09:22:26;;;;;;;15.40;10.68;;;0.00;99.90;;;;;;5028093;28;20220;-70
2021/01/16 09:24:54;;;;;;;14.95;9.57;;;0.00;99.90;;;;;;5029261;28;20229;-70
2021/01/16 09:27:25;;;;;;;15.05;9.25;;;0.10;99.90;;;;;;5029170;28;20480;-71
2021/01/16 09:29:52;;;;;;;14.60;10.35;;;0.20;99.90;;;;;;5029417;28;20257;-71
2021/01/16 09:32:33;;;;;;;21.00;10.23;;;0.20;99.90;;;;;;5027968;28;20201;-70
2021/01/16 09:35:02;;;;;;;14.23;9.60;;;0.30;99.90;;;;;;5028765;28;20226;-71
2021/01/16 09:37:30;;;;;;;14.27;10.52;;;0.20;99.90;;;;;;5028811;28;20198;-71
2021/01/16 09:40:11;;;;;;;14.43;9.52;;;0.20;99.90;;;;;;5028821;28;20209;-71
2021/01/16 09:42:46;;;;;;;12.57;9.85;;;0.20;99.90;;;;;;5019953;28;20554;-70
2021/01/16 09:45:14;;;;;;;12.30;9.20;;;0.20;99.90;;;;;;5009129;28;20233;-71
2021/01/16 09:47:50;;;;;;;14.95;9.50;;;0.20;99.90;;;;;;5008705;28;20594;-71
2021/01/16 09:50:19;;;;;;;14.27;9.80;;;0.30;99.90;;;;;;5022961;28;20224;-73
2021/01/16 09:52:47;;;;;;;12.55;9.23;;;0.30;99.90;;;;;;5026238;28;20225;-72
2021/01/16 09:55:21;;;;;;;12.52;9.20;;;0.40;99.90;;;;;;5025862;28;20310;-72
2021/01/16 09:57:48;;;;;;;11.05;8.23;;;0.40;99.90;;;;;;5023024;28;20209;-71
2021/01/16 10:00:16;;;;;;;11.23;8.07;;;0.40;99.90;;;;;;5023811;28;20568;-72
2021/01/16 10:02:43;;;;;;;9.75;7.75;;;0.50;99.90;;;;;;5025460;28;20661;-71
2021/01/16 10:05:14;;;;;;;11.25;8.00;;;0.50;99.90;;;;;;5026261;28;20228;-72
2021/01/16 13:58:29;;;;;;;5.57;4.70;;;0.80;99.90;;;;;;5113846;27;20586;-68
2021/01/16 14:00:55;;;;;;;5.80;4.50;;;0.80;99.90;;;;;;5122187;28;20202;-71
2021/01/16 14:03:25;;;;;;;5.95;4.70;;;0.80;99.90;;;;;;5121995;28;20202;-71
2021/01/16 14:05:57;;;;;;;6.90;5.85;;;0.80;99.90;;;;;;5103832;27;20639;-70
2021/01/16 14:08:23;;;;;;;6.75;5.18;;;0.90;99.90;;;;;;5101689;28;20191;-70
2021/01/16 14:10:59;;;;;;;7.38;5.70;;;0.90;99.90;;;;;;5101508;28;20203;-69
2021/01/16 14:13:25;;;;;;;5.38;4.30;;;1.00;99.90;;;;;;5101074;28;20198;-70
2021/01/16 14:16:00;;;;;;;4.60;4.15;;;0.90;99.90;;;;;;5101322;28;20226;-70
2021/01/16 14:18:28;;;;;;;5.72;4.40;;;1.00;99.90;;;;;;5092085;28;20634;-70
2021/01/16 14:20:55;;;;;;;6.43;4.68;;;1.00;99.90;;;;;;5087356;28;20203;-71
2021/01/16 14:23:32;;;;;;;5.90;4.43;;;1.00;99.90;;;;;;5082566;28;20207;-69
2021/01/16 14:26:19;;;;;;;5.70;4.70;;;1.00;99.90;;;;;;5091953;28;20474;-70
2021/01/16 14:28:47;;;;;;;7.97;5.35;;;0.90;99.90;;;;;;5098413;28;20214;-69
2021/01/16 14:31:16;;;;;;;6.70;5.10;;;1.00;99.90;;;;;;5077709;28;20218;-68
2021/01/16 14:33:43;;;;;;;7.18;5.03;;;1.00;99.90;;;;;;5081742;28;20204;-70
2021/01/16 14:36:22;;;;;;;7.10;4.57;;;1.00;99.90;;;;;;5089121;28;20790;-69
2021/01/16 14:38:58;;;;;;;5.13;4.45;;;1.00;99.90;;;;;;5090891;28;20604;-69
2021/01/16 14:41:37;;;;;;;5.72;5.00;;;1.00;99.90;;;;;;5097587;28;20250;-70
2021/01/16 14:44:05;;;;;;;7.53;6.10;;;0.90;99.90;;;;;;5083658;28;20623;-69
2021/01/16 14:46:32;;;;;;;7.82;4.70;;;0.90;99.90;;;;;;5088726;28;20211;-69
2021/01/16 14:48:58;;;;;;;6.78;5.40;;;1.00;99.90;;;;;;5085762;28;20211;-69
2021/01/16 14:51:30;;;;;;;8.18;5.10;;;0.90;99.90;;;;;;5100339;28;20218;-69
2021/01/16 14:54:01;;;;;;;9.10;5.70;;;0.90;99.90;;;;;;5100108;28;20203;-69
2021/01/16 14:56:27;;;;;;;7.40;5.93;;;0.90;99.90;;;;;;5100030;28;20215;-69
2021/01/16 14:58:59;;;;;;;7.82;5.70;;;0.90;99.90;;;;;;5100609;28;20207;-69
2021/01/16 15:01:37;;;;;;;9.55;7.68;;;0.90;99.90;;;;;;5092272;28;20210;-69
2021/01/16 15:04:04;;;;;;;14.30;7.15;;;0.90;99.90;;;;;;5098648;28;20223;-69
2021/01/16 15:06:47;;;;;;;13.73;9.57;;;0.90;99.90;;;;;;5080208;28;20204;-68
2021/01/16 15:09:14;;;;;;;16.35;9.75;;;0.90;99.90;;;;;;5074855;28;20199;-70
2021/01/16 15:11:40;;;;;;;18.20;13.40;;;0.90;99.90;;;;;;5069255;28;20204;-69
2021/01/16 15:14:06;;;;;;;20.38;13.43;;;0.90;99.90;;;;;;5074065;28;20238;-69
2021/01/16 15:16:32;;;;;;;21.45;14.00;;;0.70;99.90;;;;;;5073733;28;20606;-69
2021/01/16 15:19:00;;;;;;;22.10;13.40;;;0.70;99.90;;;;;;5071235;28;20211;-69
2021/01/16 15:21:26;;;;;;;18.02;13.25;;;0.70;99.90;;;;;;5085154;28;20578;-70
2021/01/16 15:23:52;;;;;;;19.05;13.05;;;0.70;99.90;;;;;;5069393;28;20593;-71
2021/01/16 15:26:19;;;;;;;21.48;14.90;;;0.60;99.90;;;;;;5069685;28;20201;-69
2021/01/16 15:28:46;;;;;;;17.35;13.13;;;0.50;99.90;;;;;;5070364;28;20326;-69
2021/01/16 15:31:15;;;;;;;20.85;13.35;;;0.50;99.90;;;;;;5066244;28;20208;-70
2021/01/16 15:33:42;;;;;;;20.20;13.75;;;0.60;99.90;;;;;;5070333;28;20659;-69
2021/01/16 15:36:12;;;;;;;20.80;14.20;;;0.50;99.90;;;;;;5086571;28;20659;-69
2021/01/16 15:38:39;;;;;;;20.02;13.40;;;0.50;99.90;;;;;;5082550;28;20204;-70
2021/01/16 15:41:06;;;;;;;21.02;14.02;;;0.50;99.90;;;;;;5081986;28;20792;-69
2021/01/16 15:43:35;;;;;;;19.80;13.40;;;0.40;99.90;;;;;;5065222;28;20200;-69
2021/01/16 15:46:05;;;;;;;19.20;13.38;;;0.30;99.90;;;;;;5077075;28;20603;-70
2021/01/16 15:48:37;;;;;;;22.70;13.95;;;0.30;99.90;;;;;;5073051;28;20557;-69
2021/01/16 15:51:04;;;;;;;22.25;13.43;;;0.30;99.90;;;;;;5074787;28;20212;-69
2021/01/16 15:53:31;;;;;;;24.55;14.93;;;0.20;99.90;;;;;;5064122;28;20634;-70
2021/01/16 15:55:59;;;;;;;21.85;15.35;;;0.10;99.90;;;;;;5069742;28;20580;-69
2021/01/16 15:58:28;;;;;;;24.00;14.38;;;0.10;99.90;;;;;;5070363;28;20231;-69
2021/01/16 16:00:54;;;;;;;19.35;13.27;;;0.10;99.90;;;;;;5080877;28;20240;-70
2021/01/16 16:03:25;;;;;;;19.40;14.43;;;0.00;99.90;;;;;;5070064;28;20668;-70
2021/01/16 16:05:52;;;;;;;19.02;12.90;;;-0.10;99.90;;;;;;5082928;28;20235;-69
2021/01/16 16:08:20;;;;;;;20.17;13.38;;;-0.20;99.90;;;;;;5073503;28;20196;-68
2021/01/16 16:10:50;;;;;;;21.20;14.52;;;-0.20;99.90;;;;;;5066262;28;20629;-69
2021/01/16 16:13:16;;;;;;;19.40;13.40;;;-0.20;99.90;;;;;;5064599;28;20765;-69
2021/01/16 16:15:44;;;;;;;21.83;14.88;;;-0.20;99.90;;;;;;5080069;28;20223;-69
2021/01/16 16:18:14;;;;;;;20.05;14.07;;;-0.10;99.90;;;;;;5086926;28;20228;-69
2021/01/16 16:20:41;;;;;;;20.85;12.68;;;-0.20;99.90;;;;;;5085577;28;20204;-69
2021/01/16 16:23:07;;;;;;;18.60;12.98;;;-0.20;99.90;;;;;;5088707;28;20211;-69
2021/01/16 16:25:33;;;;;;;19.65;12.75;;;-0.20;99.90;;;;;;5088434;28;20223;-68
2021/01/16 16:28:00;;;;;;;19.55;13.35;;;-0.20;99.90;;;;;;5088657;28;20196;-69
2021/01/16 16:30:27;;;;;;;17.02;11.90;;;-0.30;99.90;;;;;;5089436;28;20269;-69
2021/01/16 16:32:54;;;;;;;13.40;10.02;;;-0.40;99.90;;;;;;5089314;28;20203;-69
2021/01/16 16:35:21;;;;;;;15.18;10.02;;;-0.40;99.90;;;;;;5089421;28;20224;-69